17NK weather

Re-Dun Field
Reading Center, New York, United States

Public forecast

Using degrees Fahrenheit for public forecast. Weather courtesy of forecast.io.

METAR (pilot weather report)

Closest report is Penn Yan Airport, 7.5 nm (13.8 km) NW. Retrieved 2019/07/18 09:53 UTC (26 minutes ago):

KPEO 180953Z AUTO VRB03KT 7SM OVC004 21/19 A2995 RMK AO2 SLP136 T02060194

TAF (pilot weather forecast)

Closest forecast is Ithaca Tompkins Regional Airport, 21.9 nm (40.5 km) E. Retrieved 2019/07/18 06:42 UTC (4 hours ago):

TAF KITH 180539Z 1806/1906 09004KT P6SM OVC025 FM180800 VRB03KT 5SM BR BKN015 TEMPO 1809/1813 2SM BR OVC007 FM181500 VRB03KT P6SM BKN020 FM181800 VRB03KT P6SM SCT035 BKN060